sensor_id;sensor_type;location;lat;lon;timestamp;P1;durP1;ratioP1;P2;durP2;ratioP2
59571;SDS011;70118;45.638;11.714;2023-06-19T00:00:32;8.07;;;4.65;;
59571;SDS011;70118;45.638;11.714;2023-06-19T00:02:57;7.40;;;4.50;;
59571;SDS011;70118;45.638;11.714;2023-06-19T00:05:24;7.35;;;4.63;;
59571;SDS011;70118;45.638;11.714;2023-06-19T00:07:50;7.78;;;4.93;;
59571;SDS011;70118;45.638;11.714;2023-06-19T00:10:16;7.30;;;4.72;;
59571;SDS011;70118;45.638;11.714;2023-06-19T00:12:43;7.93;;;4.90;;
59571;SDS011;70118;45.638;11.714;2023-06-19T00:15:09;8.65;;;4.63;;
59571;SDS011;70118;45.638;11.714;2023-06-19T00:17:35;7.03;;;4.90;;
59571;SDS011;70118;45.638;11.714;2023-06-19T00:20:05;6.93;;;4.38;;
59571;SDS011;70118;45.638;11.714;2023-06-19T00:22:32;7.20;;;4.53;;
59571;SDS011;70118;45.638;11.714;2023-06-19T00:24:58;6.60;;;4.57;;
59571;SDS011;70118;45.638;11.714;2023-06-19T00:27:24;6.38;;;4.53;;
59571;SDS011;70118;45.638;11.714;2023-06-19T00:29:53;7.10;;;4.65;;
59571;SDS011;70118;45.638;11.714;2023-06-19T00:32:19;7.70;;;4.83;;
59571;SDS011;70118;45.638;11.714;2023-06-19T00:34:45;7.35;;;4.70;;
59571;SDS011;70118;45.638;11.714;2023-06-19T00:37:11;7.38;;;4.85;;
59571;SDS011;70118;45.638;11.714;2023-06-19T00:39:38;7.15;;;4.45;;
59571;SDS011;70118;45.638;11.714;2023-06-19T00:42:05;6.67;;;4.80;;
59571;SDS011;70118;45.638;11.714;2023-06-19T00:44:32;10.05;;;4.65;;
59571;SDS011;70118;45.638;11.714;2023-06-19T00:46:58;8.63;;;5.47;;
59571;SDS011;70118;45.638;11.714;2023-06-19T00:49:26;8.55;;;5.20;;
59571;SDS011;70118;45.638;11.714;2023-06-19T00:51:53;9.70;;;5.07;;
59571;SDS011;70118;45.638;11.714;2023-06-19T00:54:20;6.53;;;4.22;;
59571;SDS011;70118;45.638;11.714;2023-06-19T00:56:46;7.07;;;4.80;;
59571;SDS011;70118;45.638;11.714;2023-06-19T00:59:17;7.55;;;4.70;;
59571;SDS011;70118;45.638;11.714;2023-06-19T01:01:44;6.80;;;4.63;;
59571;SDS011;70118;45.638;11.714;2023-06-19T01:04:11;6.23;;;4.23;;
59571;SDS011;70118;45.638;11.714;2023-06-19T01:09:10;8.05;;;4.47;;
59571;SDS011;70118;45.638;11.714;2023-06-19T01:11:44;7.13;;;4.78;;
59571;SDS011;70118;45.638;11.714;2023-06-19T01:14:18;10.07;;;4.60;;
59571;SDS011;70118;45.638;11.714;2023-06-19T01:16:47;5.97;;;3.80;;
59571;SDS011;70118;45.638;11.714;2023-06-19T01:19:15;5.93;;;3.80;;
59571;SDS011;70118;45.638;11.714;2023-06-19T01:21:43;6.82;;;4.20;;
59571;SDS011;70118;45.638;11.714;2023-06-19T01:24:10;7.15;;;4.10;;
59571;SDS011;70118;45.638;11.714;2023-06-19T01:26:36;6.93;;;4.35;;
59571;SDS011;70118;45.638;11.714;2023-06-19T01:29:02;7.30;;;3.73;;
59571;SDS011;70118;45.638;11.714;2023-06-19T01:31:36;6.95;;;4.45;;
59571;SDS011;70118;45.638;11.714;2023-06-19T01:34:10;7.72;;;4.40;;
59571;SDS011;70118;45.638;11.714;2023-06-19T01:36:37;7.80;;;4.72;;
59571;SDS011;70118;45.638;11.714;2023-06-19T01:39:04;6.78;;;3.88;;
59571;SDS011;70118;45.638;11.714;2023-06-19T01:41:32;7.13;;;4.40;;
59571;SDS011;70118;45.638;11.714;2023-06-19T01:43:59;6.30;;;4.32;;
59571;SDS011;70118;45.638;11.714;2023-06-19T01:46:25;6.18;;;3.95;;
59571;SDS011;70118;45.638;11.714;2023-06-19T01:48:51;6.60;;;4.30;;
59571;SDS011;70118;45.638;11.714;2023-06-19T01:51:19;7.03;;;4.40;;
59571;SDS011;70118;45.638;11.714;2023-06-19T01:53:45;6.37;;;4.07;;
59571;SDS011;70118;45.638;11.714;2023-06-19T01:56:11;7.18;;;4.55;;
59571;SDS011;70118;45.638;11.714;2023-06-19T01:58:37;6.55;;;4.18;;
59571;SDS011;70118;45.638;11.714;2023-06-19T02:01:03;7.03;;;4.20;;
59571;SDS011;70118;45.638;11.714;2023-06-19T02:03:29;6.60;;;4.50;;
59571;SDS011;70118;45.638;11.714;2023-06-19T02:05:55;6.85;;;4.13;;
59571;SDS011;70118;45.638;11.714;2023-06-19T02:08:21;6.53;;;4.13;;
59571;SDS011;70118;45.638;11.714;2023-06-19T02:10:47;6.78;;;4.22;;
59571;SDS011;70118;45.638;11.714;2023-06-19T02:13:13;6.43;;;4.40;;
59571;SDS011;70118;45.638;11.714;2023-06-19T02:15:39;6.10;;;4.22;;
59571;SDS011;70118;45.638;11.714;2023-06-19T02:18:06;7.65;;;4.68;;
59571;SDS011;70118;45.638;11.714;2023-06-19T02:20:32;6.63;;;4.03;;
59571;SDS011;70118;45.638;11.714;2023-06-19T02:22:59;7.18;;;4.47;;
59571;SDS011;70118;45.638;11.714;2023-06-19T02:25:25;6.10;;;3.97;;
59571;SDS011;70118;45.638;11.714;2023-06-19T02:27:51;6.20;;;4.10;;
59571;SDS011;70118;45.638;11.714;2023-06-19T02:30:17;6.30;;;4.30;;
59571;SDS011;70118;45.638;11.714;2023-06-19T02:32:43;5.90;;;3.90;;
59571;SDS011;70118;45.638;11.714;2023-06-19T02:35:10;5.83;;;3.77;;
59571;SDS011;70118;45.638;11.714;2023-06-19T02:37:37;6.38;;;3.88;;
59571;SDS011;70118;45.638;11.714;2023-06-19T02:40:03;6.50;;;4.32;;
59571;SDS011;70118;45.638;11.714;2023-06-19T02:42:30;6.10;;;4.35;;
59571;SDS011;70118;45.638;11.714;2023-06-19T02:44:56;7.40;;;4.35;;
59571;SDS011;70118;45.638;11.714;2023-06-19T02:47:28;7.67;;;4.30;;
59571;SDS011;70118;45.638;11.714;2023-06-19T02:49:56;7.82;;;4.45;;
59571;SDS011;70118;45.638;11.714;2023-06-19T02:52:23;7.55;;;4.63;;
59571;SDS011;70118;45.638;11.714;2023-06-19T02:54:49;7.10;;;4.70;;
59571;SDS011;70118;45.638;11.714;2023-06-19T02:57:15;7.18;;;4.70;;
59571;SDS011;70118;45.638;11.714;2023-06-19T02:59:41;6.47;;;4.00;;
59571;SDS011;70118;45.638;11.714;2023-06-19T03:02:07;7.47;;;4.70;;
59571;SDS011;70118;45.638;11.714;2023-06-19T03:04:33;6.65;;;4.15;;
59571;SDS011;70118;45.638;11.714;2023-06-19T03:06:59;7.13;;;4.80;;
59571;SDS011;70118;45.638;11.714;2023-06-19T03:09:26;6.50;;;4.03;;
59571;SDS011;70118;45.638;11.714;2023-06-19T03:11:52;5.88;;;4.00;;
59571;SDS011;70118;45.638;11.714;2023-06-19T03:14:18;6.53;;;4.22;;
59571;SDS011;70118;45.638;11.714;2023-06-19T03:16:44;6.93;;;4.53;;
59571;SDS011;70118;45.638;11.714;2023-06-19T03:19:10;6.13;;;4.00;;
59571;SDS011;70118;45.638;11.714;2023-06-19T03:21:36;6.20;;;4.20;;
59571;SDS011;70118;45.638;11.714;2023-06-19T03:24:03;6.28;;;4.45;;
59571;SDS011;70118;45.638;11.714;2023-06-19T03:26:29;6.63;;;4.38;;
59571;SDS011;70118;45.638;11.714;2023-06-19T03:28:55;7.03;;;4.88;;
59571;SDS011;70118;45.638;11.714;2023-06-19T03:31:21;6.30;;;4.07;;
59571;SDS011;70118;45.638;11.714;2023-06-19T03:33:47;8.48;;;4.30;;
59571;SDS011;70118;45.638;11.714;2023-06-19T03:36:13;6.05;;;4.07;;
59571;SDS011;70118;45.638;11.714;2023-06-19T03:38:39;6.75;;;4.50;;
59571;SDS011;70118;45.638;11.714;2023-06-19T03:41:05;6.90;;;5.23;;
59571;SDS011;70118;45.638;11.714;2023-06-19T03:43:31;7.22;;;4.80;;
59571;SDS011;70118;45.638;11.714;2023-06-19T03:45:57;7.30;;;5.18;;
59571;SDS011;70118;45.638;11.714;2023-06-19T03:48:23;7.47;;;4.80;;
59571;SDS011;70118;45.638;11.714;2023-06-19T03:50:49;8.23;;;5.00;;
59571;SDS011;70118;45.638;11.714;2023-06-19T03:53:15;6.97;;;5.22;;
59571;SDS011;70118;45.638;11.714;2023-06-19T03:55:42;7.18;;;4.97;;
59571;SDS011;70118;45.638;11.714;2023-06-19T03:58:09;7.32;;;5.03;;
59571;SDS011;70118;45.638;11.714;2023-06-19T04:00:35;7.13;;;4.70;;
59571;SDS011;70118;45.638;11.714;2023-06-19T04:03:01;7.10;;;4.80;;
59571;SDS011;70118;45.638;11.714;2023-06-19T04:05:27;7.85;;;5.05;;
59571;SDS011;70118;45.638;11.714;2023-06-19T04:07:53;8.43;;;4.90;;
59571;SDS011;70118;45.638;11.714;2023-06-19T04:10:19;9.43;;;4.73;;
59571;SDS011;70118;45.638;11.714;2023-06-19T04:12:45;8.43;;;5.57;;
59571;SDS011;70118;45.638;11.714;2023-06-19T04:15:13;6.28;;;4.60;;
59571;SDS011;70118;45.638;11.714;2023-06-19T04:17:39;7.22;;;4.70;;
59571;SDS011;70118;45.638;11.714;2023-06-19T04:20:05;6.95;;;4.60;;
59571;SDS011;70118;45.638;11.714;2023-06-19T04:22:39;7.07;;;4.63;;
59571;SDS011;70118;45.638;11.714;2023-06-19T04:25:09;6.70;;;4.60;;
59571;SDS011;70118;45.638;11.714;2023-06-19T04:27:38;8.38;;;4.68;;
59571;SDS011;70118;45.638;11.714;2023-06-19T04:30:05;7.05;;;4.53;;
59571;SDS011;70118;45.638;11.714;2023-06-19T04:32:34;6.70;;;4.20;;
59571;SDS011;70118;45.638;11.714;2023-06-19T04:35:00;6.33;;;4.00;;
59571;SDS011;70118;45.638;11.714;2023-06-19T04:37:26;5.82;;;3.40;;
59571;SDS011;70118;45.638;11.714;2023-06-19T04:39:52;6.63;;;5.00;;
59571;SDS011;70118;45.638;11.714;2023-06-19T04:42:18;7.63;;;5.07;;
59571;SDS011;70118;45.638;11.714;2023-06-19T04:44:46;6.93;;;5.30;;
59571;SDS011;70118;45.638;11.714;2023-06-19T04:47:12;8.70;;;5.80;;
59571;SDS011;70118;45.638;11.714;2023-06-19T04:49:39;9.82;;;6.35;;
59571;SDS011;70118;45.638;11.714;2023-06-19T04:52:05;9.65;;;6.85;;
59571;SDS011;70118;45.638;11.714;2023-06-19T04:54:31;9.20;;;6.78;;
59571;SDS011;70118;45.638;11.714;2023-06-19T04:57:00;9.07;;;6.60;;
59571;SDS011;70118;45.638;11.714;2023-06-19T04:59:26;9.93;;;7.05;;
59571;SDS011;70118;45.638;11.714;2023-06-19T05:01:53;9.07;;;7.10;;
59571;SDS011;70118;45.638;11.714;2023-06-19T05:04:20;9.65;;;7.10;;
59571;SDS011;70118;45.638;11.714;2023-06-19T05:06:47;8.60;;;6.80;;
59571;SDS011;70118;45.638;11.714;2023-06-19T05:09:14;10.43;;;7.10;;
59571;SDS011;70118;45.638;11.714;2023-06-19T05:11:40;9.18;;;7.15;;
59571;SDS011;70118;45.638;11.714;2023-06-19T05:14:06;10.57;;;7.47;;
59571;SDS011;70118;45.638;11.714;2023-06-19T05:16:33;10.05;;;7.72;;
59571;SDS011;70118;45.638;11.714;2023-06-19T05:18:59;9.55;;;6.95;;
59571;SDS011;70118;45.638;11.714;2023-06-19T05:21:25;11.27;;;7.60;;
59571;SDS011;70118;45.638;11.714;2023-06-19T05:23:51;10.23;;;7.38;;
59571;SDS011;70118;45.638;11.714;2023-06-19T05:26:18;11.55;;;8.07;;
59571;SDS011;70118;45.638;11.714;2023-06-19T05:28:45;14.70;;;8.43;;
59571;SDS011;70118;45.638;11.714;2023-06-19T05:31:12;13.60;;;8.20;;
59571;SDS011;70118;45.638;11.714;2023-06-19T05:33:37;12.37;;;7.60;;
59571;SDS011;70118;45.638;11.714;2023-06-19T05:36:04;10.07;;;7.75;;
59571;SDS011;70118;45.638;11.714;2023-06-19T05:38:30;11.63;;;7.95;;
59571;SDS011;70118;45.638;11.714;2023-06-19T05:40:59;11.00;;;8.15;;
59571;SDS011;70118;45.638;11.714;2023-06-19T05:43:25;9.65;;;7.35;;
59571;SDS011;70118;45.638;11.714;2023-06-19T05:45:52;9.13;;;7.33;;
59571;SDS011;70118;45.638;11.714;2023-06-19T05:48:21;12.50;;;8.50;;
59571;SDS011;70118;45.638;11.714;2023-06-19T05:50:47;11.20;;;8.48;;
59571;SDS011;70118;45.638;11.714;2023-06-19T05:53:13;10.10;;;7.60;;
59571;SDS011;70118;45.638;11.714;2023-06-19T05:55:39;12.45;;;8.10;;
59571;SDS011;70118;45.638;11.714;2023-06-19T05:58:05;11.63;;;7.43;;
59571;SDS011;70118;45.638;11.714;2023-06-19T06:00:31;10.13;;;7.20;;
59571;SDS011;70118;45.638;11.714;2023-06-19T06:02:57;9.02;;;7.32;;
59571;SDS011;70118;45.638;11.714;2023-06-19T06:05:27;10.45;;;7.40;;
59571;SDS011;70118;45.638;11.714;2023-06-19T06:07:56;9.60;;;7.60;;
59571;SDS011;70118;45.638;11.714;2023-06-19T06:10:23;10.20;;;7.40;;
59571;SDS011;70118;45.638;11.714;2023-06-19T06:12:50;10.55;;;7.43;;
59571;SDS011;70118;45.638;11.714;2023-06-19T06:15:16;9.98;;;7.18;;
59571;SDS011;70118;45.638;11.714;2023-06-19T06:17:43;9.88;;;6.72;;
59571;SDS011;70118;45.638;11.714;2023-06-19T06:20:09;9.70;;;6.20;;
59571;SDS011;70118;45.638;11.714;2023-06-19T06:22:38;9.20;;;6.83;;
59571;SDS011;70118;45.638;11.714;2023-06-19T06:25:08;8.93;;;6.53;;
59571;SDS011;70118;45.638;11.714;2023-06-19T06:27:35;9.57;;;5.97;;
59571;SDS011;70118;45.638;11.714;2023-06-19T06:30:01;9.73;;;6.25;;
59571;SDS011;70118;45.638;11.714;2023-06-19T06:32:28;8.80;;;6.15;;
59571;SDS011;70118;45.638;11.714;2023-06-19T06:34:56;9.13;;;5.83;;
59571;SDS011;70118;45.638;11.714;2023-06-19T06:37:23;8.88;;;5.75;;
59571;SDS011;70118;45.638;11.714;2023-06-19T06:39:50;11.18;;;6.57;;
59571;SDS011;70118;45.638;11.714;2023-06-19T06:42:16;9.68;;;5.43;;
59571;SDS011;70118;45.638;11.714;2023-06-19T06:44:42;8.95;;;5.85;;
59571;SDS011;70118;45.638;11.714;2023-06-19T06:47:09;10.53;;;5.70;;
59571;SDS011;70118;45.638;11.714;2023-06-19T06:49:36;8.57;;;5.40;;
59571;SDS011;70118;45.638;11.714;2023-06-19T06:52:03;11.68;;;6.38;;
59571;SDS011;70118;45.638;11.714;2023-06-19T06:54:30;11.77;;;6.00;;
59571;SDS011;70118;45.638;11.714;2023-06-19T06:56:56;9.00;;;5.30;;
59571;SDS011;70118;45.638;11.714;2023-06-19T06:59:26;11.47;;;5.63;;
59571;SDS011;70118;45.638;11.714;2023-06-19T07:01:54;9.30;;;5.72;;
59571;SDS011;70118;45.638;11.714;2023-06-19T07:04:21;9.57;;;5.40;;
59571;SDS011;70118;45.638;11.714;2023-06-19T07:06:47;9.55;;;5.60;;
59571;SDS011;70118;45.638;11.714;2023-06-19T07:09:14;10.27;;;5.95;;
59571;SDS011;70118;45.638;11.714;2023-06-19T07:11:43;9.13;;;5.70;;
59571;SDS011;70118;45.638;11.714;2023-06-19T07:14:09;11.70;;;5.90;;
59571;SDS011;70118;45.638;11.714;2023-06-19T07:16:35;9.30;;;5.70;;
59571;SDS011;70118;45.638;11.714;2023-06-19T07:19:01;11.45;;;5.40;;
59571;SDS011;70118;45.638;11.714;2023-06-19T07:21:27;8.10;;;5.60;;
59571;SDS011;70118;45.638;11.714;2023-06-19T07:23:55;10.13;;;5.33;;
59571;SDS011;70118;45.638;11.714;2023-06-19T07:26:21;11.95;;;5.75;;
59571;SDS011;70118;45.638;11.714;2023-06-19T07:28:47;8.77;;;5.60;;
59571;SDS011;70118;45.638;11.714;2023-06-19T07:31:13;9.65;;;5.00;;
59571;SDS011;70118;45.638;11.714;2023-06-19T07:33:39;9.07;;;5.30;;
59571;SDS011;70118;45.638;11.714;2023-06-19T07:36:05;9.30;;;5.05;;
59571;SDS011;70118;45.638;11.714;2023-06-19T07:38:32;8.57;;;4.97;;
59571;SDS011;70118;45.638;11.714;2023-06-19T07:40:58;7.70;;;4.97;;
59571;SDS011;70118;45.638;11.714;2023-06-19T07:43:24;8.03;;;4.67;;
59571;SDS011;70118;45.638;11.714;2023-06-19T07:45:50;6.85;;;4.90;;
59571;SDS011;70118;45.638;11.714;2023-06-19T07:48:16;9.70;;;4.93;;
59571;SDS011;70118;45.638;11.714;2023-06-19T07:50:42;9.45;;;4.93;;
59571;SDS011;70118;45.638;11.714;2023-06-19T07:53:08;7.93;;;4.47;;
59571;SDS011;70118;45.638;11.714;2023-06-19T07:55:34;9.15;;;5.13;;
59571;SDS011;70118;45.638;11.714;2023-06-19T07:58:00;7.97;;;4.72;;
59571;SDS011;70118;45.638;11.714;2023-06-19T08:00:27;12.57;;;5.10;;
59571;SDS011;70118;45.638;11.714;2023-06-19T08:02:53;8.20;;;5.13;;
59571;SDS011;70118;45.638;11.714;2023-06-19T08:05:19;8.80;;;4.90;;
59571;SDS011;70118;45.638;11.714;2023-06-19T08:07:45;8.88;;;5.20;;
59571;SDS011;70118;45.638;11.714;2023-06-19T08:10:11;8.95;;;5.00;;
59571;SDS011;70118;45.638;11.714;2023-06-19T08:12:37;7.07;;;4.50;;
59571;SDS011;70118;45.638;11.714;2023-06-19T08:15:03;8.93;;;5.00;;
59571;SDS011;70118;45.638;11.714;2023-06-19T08:17:30;8.70;;;5.33;;
59571;SDS011;70118;45.638;11.714;2023-06-19T08:19:56;7.75;;;4.88;;
59571;SDS011;70118;45.638;11.714;2023-06-19T08:22:22;7.32;;;4.80;;
59571;SDS011;70118;45.638;11.714;2023-06-19T08:24:50;7.65;;;5.18;;
59571;SDS011;70118;45.638;11.714;2023-06-19T08:27:16;8.27;;;5.05;;
59571;SDS011;70118;45.638;11.714;2023-06-19T08:29:42;7.73;;;5.40;;
59571;SDS011;70118;45.638;11.714;2023-06-19T08:32:09;8.43;;;4.80;;
59571;SDS011;70118;45.638;11.714;2023-06-19T08:34:35;8.23;;;4.90;;
59571;SDS011;70118;45.638;11.714;2023-06-19T08:37:02;8.68;;;5.00;;
59571;SDS011;70118;45.638;11.714;2023-06-19T08:39:29;8.10;;;4.50;;
59571;SDS011;70118;45.638;11.714;2023-06-19T08:41:55;8.17;;;5.33;;
59571;SDS011;70118;45.638;11.714;2023-06-19T08:44:21;7.30;;;4.72;;
59571;SDS011;70118;45.638;11.714;2023-06-19T08:46:47;7.53;;;4.75;;
59571;SDS011;70118;45.638;11.714;2023-06-19T08:49:13;8.40;;;5.00;;
59571;SDS011;70118;45.638;11.714;2023-06-19T08:51:40;8.07;;;4.60;;
59571;SDS011;70118;45.638;11.714;2023-06-19T08:54:06;7.07;;;4.43;;
59571;SDS011;70118;45.638;11.714;2023-06-19T08:56:36;8.07;;;4.20;;
59571;SDS011;70118;45.638;11.714;2023-06-19T08:59:13;7.85;;;4.53;;
59571;SDS011;70118;45.638;11.714;2023-06-19T09:01:40;7.60;;;4.65;;
59571;SDS011;70118;45.638;11.714;2023-06-19T09:04:19;7.50;;;4.40;;
59571;SDS011;70118;45.638;11.714;2023-06-19T09:06:47;8.03;;;5.10;;
59571;SDS011;70118;45.638;11.714;2023-06-19T09:09:14;9.20;;;5.13;;
59571;SDS011;70118;45.638;11.714;2023-06-19T09:11:40;7.45;;;4.63;;
59571;SDS011;70118;45.638;11.714;2023-06-19T09:14:10;8.07;;;4.95;;
59571;SDS011;70118;45.638;11.714;2023-06-19T09:16:37;8.32;;;4.88;;
59571;SDS011;70118;45.638;11.714;2023-06-19T09:19:04;6.67;;;4.70;;
59571;SDS011;70118;45.638;11.714;2023-06-19T09:21:30;6.60;;;4.50;;
59571;SDS011;70118;45.638;11.714;2023-06-19T09:24:06;7.40;;;4.07;;
59571;SDS011;70118;45.638;11.714;2023-06-19T09:26:34;7.47;;;4.18;;
59571;SDS011;70118;45.638;11.714;2023-06-19T09:29:11;6.50;;;4.30;;
59571;SDS011;70118;45.638;11.714;2023-06-19T09:31:41;9.43;;;4.10;;
59571;SDS011;70118;45.638;11.714;2023-06-19T09:34:07;7.10;;;4.45;;
59571;SDS011;70118;45.638;11.714;2023-06-19T09:36:34;7.18;;;4.35;;
59571;SDS011;70118;45.638;11.714;2023-06-19T09:39:03;7.05;;;4.43;;
59571;SDS011;70118;45.638;11.714;2023-06-19T09:41:30;8.20;;;4.13;;
59571;SDS011;70118;45.638;11.714;2023-06-19T09:43:56;6.97;;;4.00;;
59571;SDS011;70118;45.638;11.714;2023-06-19T09:46:26;6.60;;;4.40;;
59571;SDS011;70118;45.638;11.714;2023-06-19T09:48:56;7.22;;;4.18;;
59571;SDS011;70118;45.638;11.714;2023-06-19T09:51:40;6.15;;;3.95;;
59571;SDS011;70118;45.638;11.714;2023-06-19T09:54:07;7.10;;;4.45;;
59571;SDS011;70118;45.638;11.714;2023-06-19T09:56:35;6.20;;;3.80;;
59571;SDS011;70118;45.638;11.714;2023-06-19T09:59:03;6.70;;;4.30;;
59571;SDS011;70118;45.638;11.714;2023-06-19T10:01:30;6.53;;;4.18;;
59571;SDS011;70118;45.638;11.714;2023-06-19T10:04:04;6.68;;;3.80;;
59571;SDS011;70118;45.638;11.714;2023-06-19T10:06:32;6.55;;;3.85;;
59571;SDS011;70118;45.638;11.714;2023-06-19T10:09:08;7.30;;;4.40;;
59571;SDS011;70118;45.638;11.714;2023-06-19T10:11:50;6.07;;;3.80;;
59571;SDS011;70118;45.638;11.714;2023-06-19T10:14:20;6.63;;;4.13;;
59571;SDS011;70118;45.638;11.714;2023-06-19T10:16:47;6.40;;;3.83;;
59571;SDS011;70118;45.638;11.714;2023-06-19T10:19:14;8.25;;;4.43;;
59571;SDS011;70118;45.638;11.714;2023-06-19T10:21:45;6.87;;;4.10;;
59571;SDS011;70118;45.638;11.714;2023-06-19T10:24:16;6.75;;;4.65;;
59571;SDS011;70118;45.638;11.714;2023-06-19T10:26:43;6.95;;;4.28;;
59571;SDS011;70118;45.638;11.714;2023-06-19T10:29:20;7.15;;;4.43;;
59571;SDS011;70118;45.638;11.714;2023-06-19T10:31:47;6.32;;;3.97;;
59571;SDS011;70118;45.638;11.714;2023-06-19T10:34:13;6.23;;;3.93;;
59571;SDS011;70118;45.638;11.714;2023-06-19T10:36:39;6.70;;;4.28;;
59571;SDS011;70118;45.638;11.714;2023-06-19T10:39:05;7.60;;;4.07;;
59571;SDS011;70118;45.638;11.714;2023-06-19T10:41:32;5.60;;;3.72;;
59571;SDS011;70118;45.638;11.714;2023-06-19T10:43:59;6.25;;;4.15;;
59571;SDS011;70118;45.638;11.714;2023-06-19T10:46:33;6.57;;;4.40;;
59571;SDS011;70118;45.638;11.714;2023-06-19T10:49:01;5.75;;;3.90;;
59571;SDS011;70118;45.638;11.714;2023-06-19T10:51:30;6.97;;;4.00;;
59571;SDS011;70118;45.638;11.714;2023-06-19T10:53:57;6.55;;;4.18;;
59571;SDS011;70118;45.638;11.714;2023-06-19T10:56:23;6.22;;;4.20;;
59571;SDS011;70118;45.638;11.714;2023-06-19T11:01:33;6.38;;;4.10;;
59571;SDS011;70118;45.638;11.714;2023-06-19T11:04:10;6.70;;;4.03;;
59571;SDS011;70118;45.638;11.714;2023-06-19T11:06:38;6.15;;;3.58;;
59571;SDS011;70118;45.638;11.714;2023-06-19T11:09:06;5.70;;;3.78;;
59571;SDS011;70118;45.638;11.714;2023-06-19T11:14:02;8.43;;;4.40;;
59571;SDS011;70118;45.638;11.714;2023-06-19T11:16:28;6.40;;;3.90;;
59571;SDS011;70118;45.638;11.714;2023-06-19T11:18:57;6.90;;;3.78;;
59571;SDS011;70118;45.638;11.714;2023-06-19T11:21:30;5.68;;;4.00;;
59571;SDS011;70118;45.638;11.714;2023-06-19T11:24:00;5.60;;;3.70;;
59571;SDS011;70118;45.638;11.714;2023-06-19T11:26:27;6.82;;;4.35;;
59571;SDS011;70118;45.638;11.714;2023-06-19T11:28:53;6.47;;;4.30;;
59571;SDS011;70118;45.638;11.714;2023-06-19T11:31:24;6.22;;;3.67;;
59571;SDS011;70118;45.638;11.714;2023-06-19T11:33:58;5.88;;;3.70;;
59571;SDS011;70118;45.638;11.714;2023-06-19T11:36:26;6.37;;;4.07;;
59571;SDS011;70118;45.638;11.714;2023-06-19T11:38:54;6.63;;;3.78;;
59571;SDS011;70118;45.638;11.714;2023-06-19T11:41:27;6.30;;;3.88;;
59571;SDS011;70118;45.638;11.714;2023-06-19T11:44:00;6.20;;;4.05;;
59571;SDS011;70118;45.638;11.714;2023-06-19T11:46:33;6.32;;;3.50;;
59571;SDS011;70118;45.638;11.714;2023-06-19T11:51:39;6.20;;;3.78;;
59571;SDS011;70118;45.638;11.714;2023-06-19T11:54:07;6.70;;;4.07;;
59571;SDS011;70118;45.638;11.714;2023-06-19T11:56:35;5.88;;;3.55;;
59571;SDS011;70118;45.638;11.714;2023-06-19T11:59:05;6.25;;;3.65;;
59571;SDS011;70118;45.638;11.714;2023-06-19T12:01:31;7.40;;;3.80;;
59571;SDS011;70118;45.638;11.714;2023-06-19T12:03:59;5.85;;;3.92;;
59571;SDS011;70118;45.638;11.714;2023-06-19T12:06:25;5.68;;;3.47;;
59571;SDS011;70118;45.638;11.714;2023-06-19T12:08:52;6.60;;;3.80;;
59571;SDS011;70118;45.638;11.714;2023-06-19T12:11:18;5.38;;;3.42;;
59571;SDS011;70118;45.638;11.714;2023-06-19T12:13:45;6.20;;;3.77;;
59571;SDS011;70118;45.638;11.714;2023-06-19T12:16:11;6.32;;;4.00;;
59571;SDS011;70118;45.638;11.714;2023-06-19T12:18:39;5.35;;;3.70;;
59571;SDS011;70118;45.638;11.714;2023-06-19T12:21:06;5.90;;;3.63;;
59571;SDS011;70118;45.638;11.714;2023-06-19T12:23:32;6.28;;;3.78;;
59571;SDS011;70118;45.638;11.714;2023-06-19T12:25:58;5.83;;;3.60;;
59571;SDS011;70118;45.638;11.714;2023-06-19T12:28:24;5.63;;;3.90;;
59571;SDS011;70118;45.638;11.714;2023-06-19T12:30:50;5.78;;;3.65;;
59571;SDS011;70118;45.638;11.714;2023-06-19T12:33:18;6.00;;;3.88;;
59571;SDS011;70118;45.638;11.714;2023-06-19T12:35:47;5.70;;;3.75;;
59571;SDS011;70118;45.638;11.714;2023-06-19T12:38:14;5.60;;;3.60;;
59571;SDS011;70118;45.638;11.714;2023-06-19T12:40:40;5.57;;;3.97;;
59571;SDS011;70118;45.638;11.714;2023-06-19T12:43:06;5.38;;;3.75;;
59571;SDS011;70118;45.638;11.714;2023-06-19T12:45:32;6.00;;;3.90;;
59571;SDS011;70118;45.638;11.714;2023-06-19T12:47:59;6.03;;;3.17;;
59571;SDS011;70118;45.638;11.714;2023-06-19T12:50:25;5.30;;;3.07;;
59571;SDS011;70118;45.638;11.714;2023-06-19T12:52:51;5.72;;;3.50;;
59571;SDS011;70118;45.638;11.714;2023-06-19T12:55:17;5.55;;;3.53;;
59571;SDS011;70118;45.638;11.714;2023-06-19T12:57:43;5.90;;;3.72;;
59571;SDS011;70118;45.638;11.714;2023-06-19T13:00:11;5.78;;;3.47;;
59571;SDS011;70118;45.638;11.714;2023-06-19T13:02:38;5.73;;;3.33;;
59571;SDS011;70118;45.638;11.714;2023-06-19T13:05:05;5.20;;;3.33;;
59571;SDS011;70118;45.638;11.714;2023-06-19T13:07:32;5.90;;;3.28;;
59571;SDS011;70118;45.638;11.714;2023-06-19T13:09:58;6.63;;;3.38;;
59571;SDS011;70118;45.638;11.714;2023-06-19T13:12:24;5.35;;;3.58;;
59571;SDS011;70118;45.638;11.714;2023-06-19T13:14:51;5.33;;;3.57;;
59571;SDS011;70118;45.638;11.714;2023-06-19T13:17:17;5.95;;;3.92;;
59571;SDS011;70118;45.638;11.714;2023-06-19T13:19:43;5.80;;;3.58;;
59571;SDS011;70118;45.638;11.714;2023-06-19T13:22:10;6.03;;;3.80;;
59571;SDS011;70118;45.638;11.714;2023-06-19T13:24:35;6.10;;;3.80;;
59571;SDS011;70118;45.638;11.714;2023-06-19T13:27:02;5.07;;;3.00;;
59571;SDS011;70118;45.638;11.714;2023-06-19T13:29:28;5.70;;;3.33;;
59571;SDS011;70118;45.638;11.714;2023-06-19T13:31:54;5.50;;;3.22;;
59571;SDS011;70118;45.638;11.714;2023-06-19T13:34:20;5.53;;;3.65;;
59571;SDS011;70118;45.638;11.714;2023-06-19T13:36:47;5.73;;;3.40;;
59571;SDS011;70118;45.638;11.714;2023-06-19T13:39:14;5.63;;;3.50;;
59571;SDS011;70118;45.638;11.714;2023-06-19T13:41:40;5.00;;;3.20;;
59571;SDS011;70118;45.638;11.714;2023-06-19T13:44:06;5.60;;;3.50;;
59571;SDS011;70118;45.638;11.714;2023-06-19T13:46:32;5.55;;;3.67;;
59571;SDS011;70118;45.638;11.714;2023-06-19T13:48:58;6.20;;;3.50;;
59571;SDS011;70118;45.638;11.714;2023-06-19T13:51:26;6.07;;;3.70;;
59571;SDS011;70118;45.638;11.714;2023-06-19T13:53:52;5.13;;;3.17;;
59571;SDS011;70118;45.638;11.714;2023-06-19T13:56:18;5.80;;;3.33;;
59571;SDS011;70118;45.638;11.714;2023-06-19T13:58:44;5.77;;;3.47;;
59571;SDS011;70118;45.638;11.714;2023-06-19T14:01:10;5.13;;;3.30;;
59571;SDS011;70118;45.638;11.714;2023-06-19T14:03:37;5.30;;;3.50;;
59571;SDS011;70118;45.638;11.714;2023-06-19T14:06:06;5.63;;;3.58;;
59571;SDS011;70118;45.638;11.714;2023-06-19T14:08:32;5.25;;;3.05;;
59571;SDS011;70118;45.638;11.714;2023-06-19T14:10:58;6.60;;;3.30;;
59571;SDS011;70118;45.638;11.714;2023-06-19T14:13:24;6.00;;;3.50;;
59571;SDS011;70118;45.638;11.714;2023-06-19T14:15:51;5.35;;;3.40;;
59571;SDS011;70118;45.638;11.714;2023-06-19T14:18:18;5.85;;;3.50;;
59571;SDS011;70118;45.638;11.714;2023-06-19T14:20:44;5.40;;;3.33;;
59571;SDS011;70118;45.638;11.714;2023-06-19T14:23:10;5.17;;;3.30;;
59571;SDS011;70118;45.638;11.714;2023-06-19T14:25:36;5.50;;;3.40;;
59571;SDS011;70118;45.638;11.714;2023-06-19T14:28:03;6.28;;;3.63;;
59571;SDS011;70118;45.638;11.714;2023-06-19T14:30:30;4.50;;;2.70;;
59571;SDS011;70118;45.638;11.714;2023-06-19T14:32:56;6.30;;;3.33;;
59571;SDS011;70118;45.638;11.714;2023-06-19T14:35:22;5.38;;;3.35;;
59571;SDS011;70118;45.638;11.714;2023-06-19T14:37:48;5.40;;;3.25;;
59571;SDS011;70118;45.638;11.714;2023-06-19T14:40:14;5.15;;;3.50;;
59571;SDS011;70118;45.638;11.714;2023-06-19T14:42:40;5.33;;;3.53;;